createdAt,value
2018-11-22T00:00:05.846Z,1019.92
2018-11-22T00:01:05.854Z,1019.91
2018-11-22T00:02:05.927Z,1019.93
2018-11-22T00:03:05.859Z,1019.93
2018-11-22T00:04:05.891Z,1019.93
2018-11-22T00:05:05.964Z,1020.00
2018-11-22T00:06:05.864Z,1019.91
2018-11-22T00:07:05.950Z,1020.00
2018-11-22T00:08:05.879Z,1019.95
2018-11-22T00:09:05.891Z,1020.00
2018-11-22T00:10:05.917Z,1020.01
2018-11-22T00:11:05.875Z,1019.95
2018-11-22T00:12:05.875Z,1019.94
2018-11-22T00:13:05.909Z,1019.88
2018-11-22T00:14:05.934Z,1019.95
2018-11-22T00:15:05.923Z,1019.97
2018-11-22T00:16:05.900Z,1019.97
2018-11-22T00:17:05.899Z,1019.92
2018-11-22T00:18:05.896Z,1019.95
2018-11-22T00:19:06.223Z,1020.05
2018-11-22T00:20:05.940Z,1020.00
2018-11-22T00:21:05.903Z,1019.97
2018-11-22T00:22:05.901Z,1019.95
2018-11-22T00:23:05.911Z,1019.95
2018-11-22T00:24:06.002Z,1020.02
2018-11-22T00:25:05.924Z,1020.01
2018-11-22T00:26:05.945Z,1019.97
2018-11-22T00:27:05.917Z,1020.01
2018-11-22T00:28:05.919Z,1020.00
2018-11-22T00:29:05.922Z,1020.05
2018-11-22T00:30:05.926Z,1019.98
2018-11-22T00:31:05.986Z,1019.94
2018-11-22T00:32:05.940Z,1019.97
2018-11-22T00:33:05.954Z,1020.01
2018-11-22T00:34:05.958Z,1019.97
2018-11-22T00:35:05.953Z,1020.00
2018-11-22T00:36:06.110Z,1020.01
2018-11-22T00:37:05.979Z,1019.98
2018-11-22T00:38:05.945Z,1019.95
2018-11-22T00:39:05.970Z,1019.93
2018-11-22T00:40:05.960Z,1019.93
2018-11-22T00:41:05.960Z,1019.91
2018-11-22T00:42:05.957Z,1019.98
2018-11-22T00:43:05.981Z,1020.01
2018-11-22T00:44:05.979Z,1019.98
2018-11-22T00:45:05.979Z,1019.97
2018-11-22T00:46:05.979Z,1019.99
2018-11-22T00:47:06.006Z,1019.93
2018-11-22T00:48:06.042Z,1020.00
2018-11-22T00:49:05.977Z,1020.00
2018-11-22T00:50:05.974Z,1019.98
2018-11-22T00:51:05.978Z,1020.00
2018-11-22T00:52:06.047Z,1019.97
2018-11-22T00:53:05.996Z,1020.00
2018-11-22T00:54:06.021Z,1019.95
2018-11-22T00:55:06.033Z,1020.05
2018-11-22T00:56:06.011Z,1020.07
2018-11-22T00:57:06.016Z,1020.01
2018-11-22T00:58:06.021Z,1020.04
2018-11-22T00:59:06.006Z,1020.02
2018-11-22T01:00:06.091Z,1020.01
2018-11-22T01:01:06.008Z,1020.07
2018-11-22T01:02:06.010Z,1019.99
2018-11-22T01:03:06.012Z,1020.00
2018-11-22T01:04:06.015Z,1020.01
2018-11-22T01:05:06.019Z,1020.01
2018-11-22T01:06:06.078Z,1020.02
2018-11-22T01:07:06.038Z,1020.04
2018-11-22T01:08:06.026Z,1020.00
2018-11-22T01:09:06.081Z,1020.06
2018-11-22T01:10:06.031Z,1020.04
2018-11-22T01:11:06.053Z,1020.03
2018-11-22T01:12:06.283Z,1020.06
2018-11-22T01:13:06.040Z,1020.02
2018-11-22T01:14:06.042Z,1019.97
2018-11-22T01:15:06.052Z,1020.08
2018-11-22T01:16:06.051Z,1020.01
2018-11-22T01:17:06.069Z,1020.08
2018-11-22T01:18:06.048Z,1020.05
2018-11-22T01:19:06.049Z,1020.03
2018-11-22T01:20:06.055Z,1020.08
2018-11-22T01:21:06.130Z,1019.99
2018-11-22T01:22:06.062Z,1019.97
2018-11-22T01:23:06.106Z,1019.95
2018-11-22T01:24:06.553Z,1020.00
2018-11-22T01:25:06.062Z,1019.98
2018-11-22T01:26:06.113Z,1019.96
2018-11-22T01:27:06.071Z,1020.00
2018-11-22T01:28:06.105Z,1020.03
2018-11-22T01:29:06.076Z,1019.97
2018-11-22T01:30:06.088Z,1019.99
2018-11-22T01:31:06.161Z,1019.95
2018-11-22T01:32:06.100Z,1019.97
2018-11-22T01:33:06.083Z,1019.94
2018-11-22T01:34:06.131Z,1019.95
2018-11-22T01:35:06.102Z,1019.99
2018-11-22T01:36:06.096Z,1019.96
2018-11-22T01:37:06.097Z,1020.00
2018-11-22T01:38:06.172Z,1019.94
2018-11-22T01:39:06.147Z,1019.88
2018-11-22T01:40:06.103Z,1019.88
2018-11-22T01:41:06.116Z,1019.89
2018-11-22T01:42:06.111Z,1019.91
2018-11-22T01:43:06.235Z,1019.97
2018-11-22T01:44:06.119Z,1019.88
2018-11-22T01:45:06.140Z,1019.97
2018-11-22T01:46:06.127Z,1019.90
2018-11-22T01:47:06.126Z,1019.89
2018-11-22T01:48:06.127Z,1019.87
2018-11-22T01:49:06.161Z,1019.87
2018-11-22T01:50:06.248Z,1019.89
2018-11-22T01:51:06.131Z,1019.97
2018-11-22T01:52:06.132Z,1019.84
2018-11-22T01:53:06.138Z,1019.90
2018-11-22T01:54:06.147Z,1019.89
2018-11-22T01:55:06.418Z,1019.88
2018-11-22T01:56:06.153Z,1019.93
2018-11-22T01:57:06.167Z,1019.88
2018-11-22T01:58:06.156Z,1019.87
2018-11-22T01:59:06.164Z,1019.87
2018-11-22T02:00:06.194Z,1019.88
2018-11-22T02:01:06.200Z,1019.88
2018-11-22T02:02:06.160Z,1019.90
2018-11-22T02:03:06.175Z,1019.86
2018-11-22T02:04:06.289Z,1019.86
2018-11-22T02:05:06.172Z,1019.89
2018-11-22T02:06:06.186Z,1019.80
2018-11-22T02:07:06.283Z,1019.85
2018-11-22T02:08:06.192Z,1019.88
2018-11-22T02:09:06.244Z,1019.90
2018-11-22T02:10:06.192Z,1019.86
2018-11-22T02:11:06.248Z,1019.84
2018-11-22T02:12:06.342Z,1019.86
2018-11-22T02:13:06.230Z,1019.77
2018-11-22T02:14:06.191Z,1019.76
2018-11-22T02:15:06.190Z,1019.85
2018-11-22T02:16:06.208Z,1019.75
2018-11-22T02:17:06.204Z,1019.77
2018-11-22T02:18:06.231Z,1019.76
2018-11-22T02:19:06.263Z,1019.72
2018-11-22T02:20:06.207Z,1019.78
2018-11-22T02:21:06.210Z,1019.83
2018-11-22T02:22:06.242Z,1019.75
2018-11-22T02:23:06.213Z,1019.79
2018-11-22T02:24:06.259Z,1019.80
2018-11-22T02:25:06.239Z,1019.80
2018-11-22T02:26:06.233Z,1019.81
2018-11-22T02:27:06.226Z,1019.79
2018-11-22T02:28:06.231Z,1019.85
2018-11-22T02:29:06.238Z,1019.81
2018-11-22T02:30:06.397Z,1019.83
2018-11-22T02:31:06.234Z,1019.83
2018-11-22T02:32:06.238Z,1019.88
2018-11-22T02:33:06.243Z,1019.81
2018-11-22T02:34:06.253Z,1019.81
2018-11-22T02:35:06.243Z,1019.82
2018-11-22T02:36:06.284Z,1019.83
2018-11-22T02:37:06.633Z,1019.84
2018-11-22T02:38:06.280Z,1019.92
2018-11-22T02:39:06.262Z,1019.87
2018-11-22T02:40:06.266Z,1019.85
2018-11-22T02:41:06.293Z,1019.85
2018-11-22T02:42:06.279Z,1019.91
2018-11-22T02:43:06.296Z,1019.85
2018-11-22T02:44:06.574Z,1019.90
2018-11-22T02:45:06.274Z,1019.86
2018-11-22T02:46:06.271Z,1019.85
2018-11-22T02:47:06.279Z,1019.85
2018-11-22T02:48:06.309Z,1019.90
2018-11-22T02:49:06.288Z,1019.93
2018-11-22T02:50:06.308Z,1019.84
2018-11-22T02:51:06.419Z,1019.90
2018-11-22T02:52:06.312Z,1019.91
2018-11-22T02:53:06.319Z,1019.94
2018-11-22T02:54:06.296Z,1019.97
2018-11-22T02:55:06.310Z,1019.87
2018-11-22T02:56:06.393Z,1019.92
2018-11-22T02:57:06.305Z,1019.84
2018-11-22T02:58:06.512Z,1019.88
2018-11-22T02:59:06.330Z,1019.92
2018-11-22T03:00:06.312Z,1019.86
2018-11-22T03:01:06.355Z,1019.84
2018-11-22T03:02:06.318Z,1019.87
2018-11-22T03:03:06.330Z,1019.84
2018-11-22T03:04:06.340Z,1019.86
2018-11-22T03:05:06.437Z,1019.87
2018-11-22T03:06:06.338Z,1019.88
2018-11-22T03:07:06.329Z,1019.87
2018-11-22T03:08:06.336Z,1019.89
2018-11-22T03:09:06.373Z,1019.89
2018-11-22T03:10:06.388Z,1019.92
2018-11-22T03:11:06.338Z,1019.91
2018-11-22T03:12:06.544Z,1019.92
2018-11-22T03:13:06.350Z,1019.93
2018-11-22T03:14:06.356Z,1019.91
2018-11-22T03:15:06.356Z,1019.91
2018-11-22T03:16:06.420Z,1019.89
2018-11-22T03:17:06.359Z,1019.91
2018-11-22T03:18:06.376Z,1019.89
2018-11-22T03:19:06.491Z,1019.91
2018-11-22T03:20:06.372Z,1019.88
2018-11-22T03:21:06.365Z,1019.94
2018-11-22T03:22:06.418Z,1019.88
2018-11-22T03:23:06.373Z,1019.89
2018-11-22T03:24:06.378Z,1019.95
2018-11-22T03:25:06.377Z,1019.95
2018-11-22T03:26:06.475Z,1019.94
2018-11-22T03:27:06.387Z,1019.97
2018-11-22T03:28:06.409Z,1019.94
2018-11-22T03:29:06.413Z,1019.92
2018-11-22T03:30:06.398Z,1019.99
2018-11-22T03:31:06.397Z,1019.93
2018-11-22T03:32:06.421Z,1019.92
2018-11-22T03:33:06.484Z,1019.94
2018-11-22T03:34:06.409Z,1019.97
2018-11-22T03:35:06.436Z,1019.95
2018-11-22T03:36:06.419Z,1019.94
2018-11-22T03:37:06.411Z,1019.93
2018-11-22T03:38:06.451Z,1019.95
2018-11-22T03:39:06.423Z,1019.93
2018-11-22T03:40:06.566Z,1019.89
2018-11-22T03:41:06.424Z,1019.88
2018-11-22T03:42:06.437Z,1019.93
2018-11-22T03:43:06.500Z,1019.90
2018-11-22T03:44:06.447Z,1019.89
2018-11-22T03:45:06.447Z,1019.86
2018-11-22T03:46:06.460Z,1019.87
2018-11-22T03:47:06.532Z,1019.87
2018-11-22T03:48:06.446Z,1019.87
2018-11-22T03:49:06.471Z,1019.89
2018-11-22T03:50:06.457Z,1019.86
2018-11-22T03:51:06.472Z,1019.89
2018-11-22T03:52:06.458Z,1019.89
2018-11-22T03:53:06.462Z,1019.85
2018-11-22T03:54:06.666Z,1019.86
2018-11-22T03:55:06.480Z,1019.93
2018-11-22T03:56:06.491Z,1019.89
2018-11-22T03:57:06.482Z,1019.85
2018-11-22T03:58:06.484Z,1019.85
2018-11-22T03:59:06.482Z,1019.80
2018-11-22T04:00:06.469Z,1019.82
2018-11-22T04:01:06.626Z,1019.77
2018-11-22T04:02:06.487Z,1019.78
2018-11-22T04:03:06.482Z,1019.72
2018-11-22T04:04:06.494Z,1019.73
2018-11-22T04:05:06.503Z,1019.79
2018-11-22T04:06:06.495Z,1019.79
2018-11-22T04:07:06.517Z,1019.73
2018-11-22T04:08:06.669Z,1019.71
2018-11-22T04:09:06.496Z,1019.83
2018-11-22T04:10:06.503Z,1019.77
2018-11-22T04:11:06.542Z,1019.78
2018-11-22T04:12:06.563Z,1019.75
2018-11-22T04:13:06.554Z,1019.77
2018-11-22T04:14:06.510Z,1019.73
2018-11-22T04:15:06.562Z,1019.77
2018-11-22T04:16:06.526Z,1019.79
2018-11-22T04:17:06.524Z,1019.79
2018-11-22T04:18:06.585Z,1019.79
2018-11-22T04:19:06.540Z,1019.87
2018-11-22T04:20:06.545Z,1019.73
2018-11-22T04:21:06.543Z,1019.75
2018-11-22T04:22:06.558Z,1019.75
2018-11-22T04:23:06.560Z,1019.76
2018-11-22T04:24:06.534Z,1019.74
2018-11-22T04:25:06.542Z,1019.79
2018-11-22T04:26:06.543Z,1019.78
2018-11-22T04:27:06.601Z,1019.72
2018-11-22T04:28:06.554Z,1019.75
2018-11-22T04:29:06.583Z,1019.75
2018-11-22T04:30:06.561Z,1019.72
2018-11-22T04:31:06.567Z,1019.70
2018-11-22T04:32:06.563Z,1019.71
2018-11-22T04:33:06.616Z,1019.72
2018-11-22T04:34:06.635Z,1019.74
2018-11-22T04:35:06.568Z,1019.73
2018-11-22T04:36:06.730Z,1019.74
2018-11-22T04:37:06.582Z,1019.79
2018-11-22T04:38:06.572Z,1019.73
2018-11-22T04:39:06.576Z,1019.75
2018-11-22T04:40:06.617Z,1019.73
2018-11-22T04:41:06.581Z,1019.72
2018-11-22T04:42:06.588Z,1019.72
2018-11-22T04:43:06.866Z,1019.67
2018-11-22T04:44:06.639Z,1019.73
2018-11-22T04:45:06.606Z,1019.72
2018-11-22T04:46:06.606Z,1019.74
2018-11-22T04:47:06.602Z,1019.72
2018-11-22T04:48:06.603Z,1019.77
2018-11-22T04:49:06.631Z,1019.83
2018-11-22T04:50:06.955Z,1019.77
2018-11-22T04:51:06.654Z,1019.77
2018-11-22T04:52:06.617Z,1019.76
2018-11-22T04:53:06.616Z,1019.77
2018-11-22T04:54:06.617Z,1019.78
2018-11-22T04:55:06.631Z,1019.80
2018-11-22T04:56:06.664Z,1019.81
2018-11-22T04:57:06.705Z,1019.81
2018-11-22T04:58:06.648Z,1019.84
2018-11-22T04:59:06.629Z,1019.83
2018-11-22T05:00:06.643Z,1019.91
2018-11-22T05:01:06.657Z,1019.88
2018-11-22T05:02:06.664Z,1019.83
2018-11-22T05:03:06.711Z,1019.85
2018-11-22T05:04:06.657Z,1019.85
2018-11-22T05:05:06.690Z,1019.83
2018-11-22T05:06:06.658Z,1019.86
2018-11-22T05:07:06.651Z,1019.83
2018-11-22T05:08:06.657Z,1019.83
2018-11-22T05:09:06.690Z,1019.83
2018-11-22T05:10:06.675Z,1019.80
2018-11-22T05:11:06.779Z,1019.84
2018-11-22T05:12:06.670Z,1019.82
2018-11-22T05:13:06.702Z,1019.79
2018-11-22T05:14:06.680Z,1019.79
2018-11-22T05:15:06.677Z,1019.83
2018-11-22T05:16:06.711Z,1019.83
2018-11-22T05:17:06.677Z,1019.81
2018-11-22T05:18:06.701Z,1019.77
2018-11-22T05:19:06.686Z,1019.78
2018-11-22T05:20:06.752Z,1019.82
2018-11-22T05:21:06.692Z,1019.78
2018-11-22T05:22:06.718Z,1019.83
2018-11-22T05:23:06.706Z,1019.83
2018-11-22T05:24:06.699Z,1019.96
2018-11-22T05:25:06.729Z,1019.86
2018-11-22T05:26:06.735Z,1019.93
2018-11-22T05:27:06.800Z,1019.88
2018-11-22T05:28:06.718Z,1019.87
2018-11-22T05:29:12.396Z,1019.87
2018-11-22T05:30:06.733Z,1019.93
2018-11-22T05:31:06.729Z,1019.91
2018-11-22T05:32:06.765Z,1019.96
2018-11-22T05:33:06.759Z,1019.95
2018-11-22T05:34:06.900Z,1019.86
2018-11-22T05:35:06.737Z,1019.89
2018-11-22T05:36:06.757Z,1019.91
2018-11-22T05:37:06.750Z,1019.88
2018-11-22T05:38:06.756Z,1019.88
2018-11-22T05:39:06.823Z,1019.88
2018-11-22T05:40:06.757Z,1019.87
2018-11-22T05:41:06.745Z,1019.91
2018-11-22T05:42:06.804Z,1019.91
2018-11-22T05:43:06.886Z,1019.93
2018-11-22T05:44:06.756Z,1019.88
2018-11-22T05:45:06.777Z,1019.90
2018-11-22T05:46:06.783Z,1019.86
2018-11-22T05:47:06.758Z,1019.91
2018-11-22T05:48:06.777Z,1019.93
2018-11-22T05:49:06.798Z,1019.92
2018-11-22T05:50:06.791Z,1019.92
2018-11-22T05:51:06.811Z,1019.91
2018-11-22T05:52:06.801Z,1019.84
2018-11-22T05:53:06.823Z,1019.90
2018-11-22T05:54:06.778Z,1019.84
2018-11-22T05:55:06.805Z,1019.81
2018-11-22T05:56:06.786Z,1019.85
2018-11-22T05:57:06.862Z,1019.85
2018-11-22T05:58:06.814Z,1019.84
2018-11-22T05:59:06.794Z,1019.82
2018-11-22T06:00:06.837Z,1019.83
2018-11-22T06:01:06.857Z,1019.85
2018-11-22T06:02:06.805Z,1019.83
2018-11-22T06:03:06.822Z,1019.87
2018-11-22T06:04:06.824Z,1019.87
2018-11-22T06:05:06.809Z,1019.89
2018-11-22T06:06:06.820Z,1019.92
2018-11-22T06:07:06.859Z,1019.86
2018-11-22T06:08:06.818Z,1019.91
2018-11-22T06:09:06.817Z,1019.94
2018-11-22T06:10:06.855Z,1019.91
2018-11-22T06:11:06.833Z,1019.91
2018-11-22T06:12:06.862Z,1019.91
2018-11-22T06:13:06.961Z,1019.91
2018-11-22T06:14:06.901Z,1019.98
2018-11-22T06:15:06.838Z,1019.98
2018-11-22T06:16:06.835Z,1019.95
2018-11-22T06:17:06.840Z,1019.94
2018-11-22T06:18:06.868Z,1019.93
2018-11-22T06:19:06.907Z,1019.93
2018-11-22T06:20:07.418Z,1019.95
2018-11-22T06:21:06.873Z,1019.99
2018-11-22T06:22:06.858Z,1019.95
2018-11-22T06:23:06.867Z,1020.01
2018-11-22T06:24:06.865Z,1019.97
2018-11-22T06:25:06.861Z,1020.06
2018-11-22T06:26:06.901Z,1020.04
2018-11-22T06:27:06.884Z,1020.03
2018-11-22T06:28:06.888Z,1020.05
2018-11-22T06:29:07.073Z,1020.05
2018-11-22T06:30:06.883Z,1020.06
2018-11-22T06:31:06.883Z,1020.11
2018-11-22T06:32:06.992Z,1020.10
2018-11-22T06:33:06.901Z,1020.08
2018-11-22T06:34:06.978Z,1020.09
2018-11-22T06:35:06.897Z,1020.18
2018-11-22T06:36:06.972Z,1020.14
2018-11-22T06:37:07.721Z,1020.10
2018-11-22T06:38:07.378Z,1020.10
2018-11-22T06:39:06.926Z,1020.10
2018-11-22T06:40:06.902Z,1020.09
2018-11-22T06:41:06.910Z,1020.15
2018-11-22T06:42:06.928Z,1020.19
2018-11-22T06:43:06.914Z,1020.16
2018-11-22T06:44:06.943Z,1020.14
2018-11-22T06:45:07.116Z,1020.11
2018-11-22T06:46:06.925Z,1020.08
2018-11-22T06:47:06.932Z,1020.14
2018-11-22T06:48:06.939Z,1020.11
2018-11-22T06:49:06.970Z,1020.08
2018-11-22T06:50:06.941Z,1020.04
2018-11-22T06:51:06.957Z,1020.12
2018-11-22T06:52:06.957Z,1020.14
2018-11-22T06:53:06.946Z,1020.12
2018-11-22T06:54:07.003Z,1020.15
2018-11-22T06:55:06.956Z,1020.12
2018-11-22T06:56:06.972Z,1020.09
2018-11-22T06:57:07.006Z,1020.13
2018-11-22T06:58:06.955Z,1020.18
2018-11-22T06:59:06.968Z,1020.18
2018-11-22T07:00:06.966Z,1020.13
2018-11-22T07:01:07.052Z,1020.12
2018-11-22T07:02:06.964Z,1020.11
2018-11-22T07:03:07.010Z,1020.13
2018-11-22T07:04:06.974Z,1020.18
2018-11-22T07:05:06.978Z,1020.18
2018-11-22T07:06:07.002Z,1020.15
2018-11-22T07:07:06.980Z,1020.18
2018-11-22T07:08:07.056Z,1020.21
2018-11-22T07:09:06.989Z,1020.22
2018-11-22T07:10:07.104Z,1020.24
2018-11-22T07:11:07.016Z,1020.27
2018-11-22T07:12:07.009Z,1020.24
2018-11-22T07:13:07.010Z,1020.22
2018-11-22T07:14:07.008Z,1020.25
2018-11-22T07:15:07.039Z,1020.28
2018-11-22T07:16:07.030Z,1020.26
2018-11-22T07:17:07.015Z,1020.24
2018-11-22T07:18:07.042Z,1020.27
2018-11-22T07:19:07.079Z,1020.25
2018-11-22T07:20:07.023Z,1020.29
2018-11-22T07:21:07.023Z,1020.26
2018-11-22T07:22:07.045Z,1020.25
2018-11-22T07:23:07.028Z,1020.29
2018-11-22T07:24:07.105Z,1020.32
2018-11-22T07:25:07.031Z,1020.31
2018-11-22T07:26:07.247Z,1020.29
2018-11-22T07:27:07.045Z,1020.25
2018-11-22T07:28:07.038Z,1020.25
2018-11-22T07:29:07.050Z,1020.32
2018-11-22T07:30:07.076Z,1020.38
2018-11-22T07:31:07.046Z,1020.26
2018-11-22T07:32:07.046Z,1020.30
2018-11-22T07:33:07.315Z,1020.29
2018-11-22T07:34:07.054Z,1020.30
2018-11-22T07:35:07.107Z,1020.31
2018-11-22T07:36:07.063Z,1020.33
2018-11-22T07:37:07.072Z,1020.33
2018-11-22T07:38:07.093Z,1020.35
2018-11-22T07:39:07.150Z,1020.33
2018-11-22T07:40:07.078Z,1020.38
2018-11-22T07:41:07.095Z,1020.34
2018-11-22T07:42:07.529Z,1020.34
2018-11-22T07:43:07.114Z,1020.40
2018-11-22T07:44:07.080Z,1020.41
2018-11-22T07:45:07.138Z,1020.39
2018-11-22T07:46:07.113Z,1020.41
2018-11-22T07:47:07.149Z,1020.46
2018-11-22T07:48:07.146Z,1020.47
2018-11-22T07:49:07.107Z,1020.43
2018-11-22T07:50:07.123Z,1020.39
2018-11-22T07:51:07.181Z,1020.44
2018-11-22T07:52:07.129Z,1020.40
2018-11-22T07:53:07.103Z,1020.46
2018-11-22T07:54:07.206Z,1020.47
2018-11-22T07:55:07.159Z,1020.45
2018-11-22T07:56:07.122Z,1020.46
2018-11-22T07:57:07.151Z,1020.52
2018-11-22T07:58:07.126Z,1020.52
2018-11-22T07:59:07.240Z,1020.48
2018-11-22T08:00:07.145Z,1020.50
2018-11-22T08:01:07.149Z,1020.47
2018-11-22T08:02:07.132Z,1020.49
2018-11-22T08:03:07.153Z,1020.45
2018-11-22T08:04:07.168Z,1020.51
2018-11-22T08:05:07.167Z,1020.52
2018-11-22T08:06:07.168Z,1020.44
2018-11-22T08:07:07.159Z,1020.47
2018-11-22T08:08:07.191Z,1020.46
2018-11-22T08:09:07.211Z,1020.48
2018-11-22T08:10:07.172Z,1020.52
2018-11-22T08:11:07.163Z,1020.48
2018-11-22T08:12:12.152Z,1020.48
2018-11-22T08:13:07.194Z,1020.49
2018-11-22T08:14:07.188Z,1020.44
2018-11-22T08:15:07.243Z,1020.49
2018-11-22T08:16:07.180Z,1020.43
2018-11-22T08:17:07.208Z,1020.45
2018-11-22T08:18:07.178Z,1020.49
2018-11-22T08:19:07.182Z,1020.50
2018-11-22T08:20:07.219Z,1020.45
2018-11-22T08:21:07.241Z,1020.50
2018-11-22T08:22:07.202Z,1020.48
2018-11-22T08:23:07.196Z,1020.51
2018-11-22T08:24:07.197Z,1020.50
2018-11-22T08:25:07.202Z,1020.50
2018-11-22T08:26:07.222Z,1020.52
2018-11-22T08:27:07.237Z,1020.53
2018-11-22T08:28:07.215Z,1020.52
2018-11-22T08:29:07.220Z,1020.59
2018-11-22T08:30:07.231Z,1020.58
2018-11-22T08:31:07.229Z,1020.60
2018-11-22T08:32:07.285Z,1020.63
2018-11-22T08:33:07.230Z,1020.58
2018-11-22T08:34:07.252Z,1020.60
2018-11-22T08:35:07.228Z,1020.61
2018-11-22T08:36:07.271Z,1020.61
2018-11-22T08:37:07.245Z,1020.62
2018-11-22T08:38:07.267Z,1020.64
2018-11-22T08:39:07.263Z,1020.64
2018-11-22T08:40:07.242Z,1020.69
2018-11-22T08:41:07.272Z,1020.66
2018-11-22T08:42:07.277Z,1020.67
2018-11-22T08:43:07.256Z,1020.69
2018-11-22T08:44:07.286Z,1020.70
2018-11-22T08:45:07.315Z,1020.70
2018-11-22T08:46:07.266Z,1020.73
2018-11-22T08:47:12.061Z,1020.69
2018-11-22T08:48:07.431Z,1020.74
2018-11-22T08:49:07.274Z,1020.73
2018-11-22T08:50:07.315Z,1020.71
2018-11-22T08:51:07.273Z,1020.72
2018-11-22T08:52:07.291Z,1020.72
2018-11-22T08:53:07.287Z,1020.73
2018-11-22T08:54:07.411Z,1020.71
2018-11-22T08:55:07.329Z,1020.77
2018-11-22T08:56:07.330Z,1020.74
2018-11-22T08:57:07.303Z,1020.70
2018-11-22T08:58:07.300Z,1020.71
2018-11-22T08:59:07.428Z,1020.70
2018-11-22T09:00:07.336Z,1020.70
2018-11-22T09:01:07.314Z,1020.70
2018-11-22T09:02:07.374Z,1020.74
2018-11-22T09:03:07.323Z,1020.72
2018-11-22T09:04:07.321Z,1020.75
2018-11-22T09:05:07.321Z,1020.77
2018-11-22T09:06:07.352Z,1020.76
2018-11-22T09:07:07.326Z,1020.77
2018-11-22T09:08:07.348Z,1020.78
2018-11-22T09:09:07.403Z,1020.79
2018-11-22T09:10:07.385Z,1020.81
2018-11-22T09:11:07.353Z,1020.79
2018-11-22T09:12:07.340Z,1020.81
2018-11-22T09:13:07.352Z,1020.78
2018-11-22T09:14:07.391Z,1020.76
2018-11-22T09:15:07.355Z,1020.80
2018-11-22T09:16:07.357Z,1020.84
2018-11-22T09:17:07.361Z,1020.83
2018-11-22T09:18:07.362Z,1020.75
2018-11-22T09:19:07.388Z,1020.76
2018-11-22T09:20:07.422Z,1020.76
2018-11-22T09:21:07.374Z,1020.78
2018-11-22T09:22:07.387Z,1020.78
2018-11-22T09:23:07.484Z,1020.85
2018-11-22T09:24:07.383Z,1020.82
2018-11-22T09:25:07.388Z,1020.85
2018-11-22T09:26:07.415Z,1020.83
2018-11-22T09:27:07.433Z,1020.82
2018-11-22T09:28:07.409Z,1020.83
2018-11-22T09:29:07.398Z,1020.80
2018-11-22T09:30:07.425Z,1020.81
2018-11-22T09:31:07.412Z,1020.81
2018-11-22T09:32:07.438Z,1020.83
2018-11-22T09:33:07.412Z,1020.81
2018-11-22T09:34:07.407Z,1020.82
2018-11-22T09:35:07.451Z,1020.81
2018-11-22T09:36:07.468Z,1020.84
2018-11-22T09:37:07.448Z,1020.83
2018-11-22T09:38:07.429Z,1020.82
2018-11-22T09:39:07.451Z,1020.84
2018-11-22T09:40:07.430Z,1020.88
2018-11-22T09:41:07.449Z,1020.89
2018-11-22T09:42:07.533Z,1020.88
2018-11-22T09:43:07.451Z,1020.91
2018-11-22T09:44:07.475Z,1020.88
2018-11-22T09:45:07.451Z,1020.90
2018-11-22T09:46:07.454Z,1020.89
2018-11-22T09:47:07.454Z,1020.87
2018-11-22T09:48:07.526Z,1020.88
2018-11-22T09:49:07.468Z,1020.91
2018-11-22T09:50:07.479Z,1020.87
2018-11-22T09:51:07.475Z,1020.89
2018-11-22T09:52:07.484Z,1020.87
2018-11-22T09:53:07.485Z,1020.93
2018-11-22T09:54:07.495Z,1020.85
2018-11-22T09:55:07.506Z,1020.87
2018-11-22T09:56:07.513Z,1020.87
2018-11-22T09:57:07.507Z,1020.89
2018-11-22T09:58:07.491Z,1020.86
2018-11-22T09:59:07.521Z,1020.90
2018-11-22T10:00:07.499Z,1020.87
2018-11-22T10:01:07.531Z,1020.89
2018-11-22T10:02:07.553Z,1020.87
2018-11-22T10:03:07.568Z,1020.88
2018-11-22T10:04:07.570Z,1020.86
2018-11-22T10:05:07.678Z,1020.86
2018-11-22T10:06:07.540Z,1020.85
2018-11-22T10:07:07.546Z,1020.85
2018-11-22T10:08:07.531Z,1020.82
2018-11-22T10:09:07.603Z,1020.86
2018-11-22T10:10:07.550Z,1020.84
2018-11-22T10:11:07.525Z,1020.82
2018-11-22T10:12:07.562Z,1020.86
2018-11-22T10:13:07.569Z,1020.88
2018-11-22T10:14:07.551Z,1020.79
2018-11-22T10:15:07.545Z,1020.82
2018-11-22T10:16:07.603Z,1020.87
2018-11-22T10:17:07.648Z,1020.87
2018-11-22T10:18:07.559Z,1020.90
2018-11-22T10:19:07.561Z,1020.90
2018-11-22T10:20:07.576Z,1020.89
2018-11-22T10:21:07.578Z,1020.92
2018-11-22T10:22:07.682Z,1020.87
2018-11-22T10:23:07.584Z,1020.93
2018-11-22T10:24:07.619Z,1020.91
2018-11-22T10:25:07.570Z,1020.90
2018-11-22T10:26:07.577Z,1020.89
2018-11-22T10:27:07.583Z,1020.85
2018-11-22T10:28:07.634Z,1020.87
2018-11-22T10:29:07.618Z,1020.88
2018-11-22T10:30:07.635Z,1020.94
2018-11-22T10:31:07.596Z,1020.96
2018-11-22T10:32:07.597Z,1020.97
2018-11-22T10:33:07.608Z,1020.95
2018-11-22T10:34:07.633Z,1020.93
2018-11-22T10:35:07.631Z,1020.90
2018-11-22T10:36:07.626Z,1020.91
2018-11-22T10:37:07.697Z,1020.87
2018-11-22T10:38:07.674Z,1020.91
2018-11-22T10:39:07.664Z,1020.89
2018-11-22T10:40:07.650Z,1020.93
2018-11-22T10:41:07.625Z,1020.92
2018-11-22T10:42:07.690Z,1020.89
2018-11-22T10:44:07.671Z,1020.89
2018-11-22T10:45:07.717Z,1020.83
2018-11-22T10:46:07.651Z,1020.90
2018-11-22T10:47:07.654Z,1020.87
2018-11-22T10:48:07.678Z,1020.89
2018-11-22T10:49:07.714Z,1020.83
2018-11-22T10:50:07.673Z,1020.83
2018-11-22T10:51:07.687Z,1020.84
2018-11-22T10:52:07.686Z,1020.87
2018-11-22T10:53:07.694Z,1020.81
2018-11-22T10:54:07.692Z,1020.85
2018-11-22T10:55:07.762Z,1020.85
2018-11-22T10:56:07.706Z,1020.80
2018-11-22T10:57:07.693Z,1020.76
2018-11-22T10:58:07.706Z,1020.75
2018-11-22T10:59:07.700Z,1020.73
2018-11-22T11:00:07.737Z,1020.85
2018-11-22T11:01:07.719Z,1020.80
2018-11-22T11:02:07.719Z,1020.78
2018-11-22T11:03:07.711Z,1020.78
2018-11-22T11:04:07.726Z,1020.76
2018-11-22T11:05:07.733Z,1020.77
2018-11-22T11:06:07.739Z,1020.71
2018-11-22T11:07:07.772Z,1020.73
2018-11-22T11:08:07.744Z,1020.70
2018-11-22T11:09:07.718Z,1020.69
2018-11-22T11:10:07.723Z,1020.70
2018-11-22T11:11:07.736Z,1020.75
2018-11-22T11:12:07.740Z,1020.71
2018-11-22T11:13:07.810Z,1020.72
2018-11-22T11:14:07.770Z,1020.75
2018-11-22T11:15:07.747Z,1020.74
2018-11-22T11:16:07.759Z,1020.71
2018-11-22T11:17:07.752Z,1020.70
2018-11-22T11:18:07.762Z,1020.68
2018-11-22T11:19:07.805Z,1020.69
2018-11-22T11:20:07.865Z,1020.70
2018-11-22T11:21:07.824Z,1020.72
2018-11-22T11:22:07.773Z,1020.66
2018-11-22T11:23:07.765Z,1020.73
2018-11-22T11:24:07.801Z,1020.70
2018-11-22T11:25:07.795Z,1020.71
2018-11-22T11:26:07.781Z,1020.70
2018-11-22T11:27:07.850Z,1020.71
2018-11-22T11:28:07.818Z,1020.68
2018-11-22T11:29:12.706Z,1020.74
2018-11-22T11:30:07.829Z,1020.68
2018-11-22T11:31:07.798Z,1020.70
2018-11-22T11:32:07.811Z,1020.71
2018-11-22T11:33:07.829Z,1020.71
2018-11-22T11:34:07.847Z,1020.69
2018-11-22T11:35:07.822Z,1020.64
2018-11-22T11:36:07.845Z,1020.67
2018-11-22T11:37:07.809Z,1020.67
2018-11-22T11:38:07.812Z,1020.62
2018-11-22T11:39:07.859Z,1020.61
2018-11-22T11:40:07.889Z,1020.67
2018-11-22T11:41:07.829Z,1020.60
2018-11-22T11:42:07.831Z,1020.61
2018-11-22T11:43:07.895Z,1020.61
2018-11-22T11:44:07.861Z,1020.61
2018-11-22T11:45:07.858Z,1020.58
2018-11-22T11:46:07.885Z,1020.61
2018-11-22T11:47:07.910Z,1020.58
2018-11-22T11:48:07.860Z,1020.58
2018-11-22T11:49:07.859Z,1020.56
2018-11-22T11:50:07.857Z,1020.53
2018-11-22T11:51:07.878Z,1020.53
2018-11-22T11:52:07.903Z,1020.53
2018-11-22T11:53:07.866Z,1020.54
2018-11-22T11:54:07.884Z,1020.50
2018-11-22T11:55:07.879Z,1020.47
2018-11-22T11:56:07.902Z,1020.44
2018-11-22T11:57:07.923Z,1020.47
2018-11-22T11:58:07.907Z,1020.44
2018-11-22T11:59:07.885Z,1020.44
2018-11-22T12:00:07.906Z,1020.45
2018-11-22T12:01:07.914Z,1020.38
2018-11-22T12:02:07.909Z,1020.43
2018-11-22T12:03:07.938Z,1020.44
2018-11-22T12:04:07.963Z,1020.40
2018-11-22T12:05:07.932Z,1020.42
2018-11-22T12:06:07.906Z,1020.44